sensor_id;sensor_type;location;lat;lon;timestamp;P1;durP1;ratioP1;P2;durP2;ratioP2
56269;SDS011;42176;43.240;27.880;2024-01-16T00:00:22;7.40;;;3.92;;
56269;SDS011;42176;43.240;27.880;2024-01-16T00:02:23;5.25;;;3.72;;
56269;SDS011;42176;43.240;27.880;2024-01-16T00:04:23;3.90;;;2.15;;
56269;SDS011;42176;43.240;27.880;2024-01-16T00:06:26;5.70;;;3.00;;
56269;SDS011;42176;43.240;27.880;2024-01-16T00:08:27;10.10;;;3.43;;
56269;SDS011;42176;43.240;27.880;2024-01-16T00:10:27;7.53;;;4.20;;
56269;SDS011;42176;43.240;27.880;2024-01-16T00:12:28;0.63;;;0.60;;
56269;SDS011;42176;43.240;27.880;2024-01-16T00:14:29;8.03;;;3.57;;
56269;SDS011;42176;43.240;27.880;2024-01-16T00:16:29;5.27;;;3.43;;
56269;SDS011;42176;43.240;27.880;2024-01-16T00:18:30;7.63;;;3.37;;
56269;SDS011;42176;43.240;27.880;2024-01-16T00:20:30;6.03;;;3.47;;
56269;SDS011;42176;43.240;27.880;2024-01-16T00:22:31;3.65;;;2.40;;
56269;SDS011;42176;43.240;27.880;2024-01-16T00:24:32;10.02;;;2.92;;
56269;SDS011;42176;43.240;27.880;2024-01-16T00:26:32;8.63;;;3.30;;
56269;SDS011;42176;43.240;27.880;2024-01-16T00:28:33;7.13;;;4.05;;
56269;SDS011;42176;43.240;27.880;2024-01-16T00:30:33;7.13;;;3.88;;
56269;SDS011;42176;43.240;27.880;2024-01-16T00:32:34;9.20;;;4.20;;
56269;SDS011;42176;43.240;27.880;2024-01-16T00:34:34;6.30;;;3.58;;
56269;SDS011;42176;43.240;27.880;2024-01-16T00:36:35;4.93;;;3.13;;
56269;SDS011;42176;43.240;27.880;2024-01-16T00:38:35;9.67;;;4.40;;
56269;SDS011;42176;43.240;27.880;2024-01-16T00:40:36;4.88;;;3.58;;
56269;SDS011;42176;43.240;27.880;2024-01-16T00:42:37;4.30;;;3.47;;
56269;SDS011;42176;43.240;27.880;2024-01-16T00:44:38;7.07;;;4.05;;
56269;SDS011;42176;43.240;27.880;2024-01-16T00:46:38;6.90;;;3.00;;
56269;SDS011;42176;43.240;27.880;2024-01-16T00:48:39;3.67;;;2.88;;
56269;SDS011;42176;43.240;27.880;2024-01-16T00:50:39;5.00;;;3.53;;
56269;SDS011;42176;43.240;27.880;2024-01-16T00:52:41;6.80;;;4.40;;
56269;SDS011;42176;43.240;27.880;2024-01-16T00:54:42;5.35;;;2.83;;
56269;SDS011;42176;43.240;27.880;2024-01-16T00:56:43;6.28;;;3.67;;
56269;SDS011;42176;43.240;27.880;2024-01-16T00:58:43;6.75;;;3.47;;
56269;SDS011;42176;43.240;27.880;2024-01-16T01:00:44;9.75;;;4.82;;
56269;SDS011;42176;43.240;27.880;2024-01-16T01:02:45;9.85;;;4.82;;
56269;SDS011;42176;43.240;27.880;2024-01-16T01:04:45;6.23;;;3.40;;
56269;SDS011;42176;43.240;27.880;2024-01-16T01:06:46;8.40;;;4.18;;
56269;SDS011;42176;43.240;27.880;2024-01-16T01:08:46;13.35;;;4.32;;
56269;SDS011;42176;43.240;27.880;2024-01-16T01:10:47;11.73;;;5.57;;
56269;SDS011;42176;43.240;27.880;2024-01-16T01:12:48;8.35;;;4.30;;
56269;SDS011;42176;43.240;27.880;2024-01-16T01:14:49;6.22;;;4.38;;
56269;SDS011;42176;43.240;27.880;2024-01-16T01:16:49;7.72;;;3.92;;
56269;SDS011;42176;43.240;27.880;2024-01-16T01:18:51;10.07;;;4.15;;
56269;SDS011;42176;43.240;27.880;2024-01-16T01:20:51;10.88;;;5.50;;
56269;SDS011;42176;43.240;27.880;2024-01-16T01:22:52;10.00;;;4.93;;
56269;SDS011;42176;43.240;27.880;2024-01-16T01:24:53;13.37;;;6.73;;
56269;SDS011;42176;43.240;27.880;2024-01-16T01:26:53;18.70;;;7.17;;
56269;SDS011;42176;43.240;27.880;2024-01-16T01:28:54;18.23;;;7.87;;
56269;SDS011;42176;43.240;27.880;2024-01-16T01:30:55;32.53;;;13.68;;
56269;SDS011;42176;43.240;27.880;2024-01-16T01:32:55;17.38;;;9.27;;
56269;SDS011;42176;43.240;27.880;2024-01-16T01:34:56;17.73;;;8.50;;
56269;SDS011;42176;43.240;27.880;2024-01-16T01:36:56;20.43;;;9.60;;
56269;SDS011;42176;43.240;27.880;2024-01-16T01:38:58;12.23;;;6.55;;
56269;SDS011;42176;43.240;27.880;2024-01-16T01:40:58;8.47;;;4.60;;
56269;SDS011;42176;43.240;27.880;2024-01-16T01:43:16;8.07;;;4.07;;
56269;SDS011;42176;43.240;27.880;2024-01-16T01:45:23;10.90;;;5.57;;
56269;SDS011;42176;43.240;27.880;2024-01-16T01:47:24;10.57;;;5.38;;
56269;SDS011;42176;43.240;27.880;2024-01-16T01:49:25;5.55;;;3.40;;
56269;SDS011;42176;43.240;27.880;2024-01-16T01:53:27;9.52;;;4.00;;
56269;SDS011;42176;43.240;27.880;2024-01-16T01:55:30;10.35;;;6.38;;
56269;SDS011;42176;43.240;27.880;2024-01-16T01:57:32;13.98;;;6.60;;
56269;SDS011;42176;43.240;27.880;2024-01-16T01:59:33;7.72;;;3.65;;
56269;SDS011;42176;43.240;27.880;2024-01-16T02:01:34;10.27;;;4.28;;
56269;SDS011;42176;43.240;27.880;2024-01-16T02:03:40;14.93;;;6.78;;
56269;SDS011;42176;43.240;27.880;2024-01-16T02:05:43;13.10;;;7.32;;
56269;SDS011;42176;43.240;27.880;2024-01-16T02:07:44;14.63;;;8.10;;
56269;SDS011;42176;43.240;27.880;2024-01-16T02:09:45;7.53;;;4.95;;
56269;SDS011;42176;43.240;27.880;2024-01-16T02:11:46;13.35;;;5.82;;
56269;SDS011;42176;43.240;27.880;2024-01-16T02:13:46;9.55;;;4.68;;
56269;SDS011;42176;43.240;27.880;2024-01-16T02:15:47;9.93;;;6.40;;
56269;SDS011;42176;43.240;27.880;2024-01-16T02:17:47;8.38;;;5.72;;
56269;SDS011;42176;43.240;27.880;2024-01-16T02:19:48;5.65;;;2.45;;
56269;SDS011;42176;43.240;27.880;2024-01-16T02:21:49;8.13;;;3.70;;
56269;SDS011;42176;43.240;27.880;2024-01-16T02:23:51;7.07;;;3.97;;
56269;SDS011;42176;43.240;27.880;2024-01-16T02:25:52;11.70;;;6.63;;
56269;SDS011;42176;43.240;27.880;2024-01-16T02:27:53;10.55;;;6.13;;
56269;SDS011;42176;43.240;27.880;2024-01-16T02:29:54;7.20;;;4.20;;
56269;SDS011;42176;43.240;27.880;2024-01-16T02:31:54;5.97;;;3.70;;
56269;SDS011;42176;43.240;27.880;2024-01-16T02:33:55;7.00;;;4.20;;
56269;SDS011;42176;43.240;27.880;2024-01-16T02:35:55;12.07;;;5.40;;
56269;SDS011;42176;43.240;27.880;2024-01-16T02:37:56;8.50;;;5.27;;
56269;SDS011;42176;43.240;27.880;2024-01-16T02:39:57;9.18;;;4.75;;
56269;SDS011;42176;43.240;27.880;2024-01-16T02:41:58;9.15;;;4.40;;
56269;SDS011;42176;43.240;27.880;2024-01-16T02:43:59;12.38;;;4.93;;
56269;SDS011;42176;43.240;27.880;2024-01-16T02:45:59;7.23;;;3.70;;
56269;SDS011;42176;43.240;27.880;2024-01-16T02:48:00;12.30;;;5.93;;
56269;SDS011;42176;43.240;27.880;2024-01-16T02:50:00;7.47;;;4.67;;
56269;SDS011;42176;43.240;27.880;2024-01-16T02:52:02;8.40;;;5.38;;
56269;SDS011;42176;43.240;27.880;2024-01-16T02:54:04;16.00;;;4.45;;
56269;SDS011;42176;43.240;27.880;2024-01-16T02:56:07;6.45;;;3.42;;
56269;SDS011;42176;43.240;27.880;2024-01-16T02:58:08;8.35;;;4.20;;
56269;SDS011;42176;43.240;27.880;2024-01-16T03:00:09;9.10;;;4.90;;
56269;SDS011;42176;43.240;27.880;2024-01-16T03:02:11;11.75;;;5.47;;
56269;SDS011;42176;43.240;27.880;2024-01-16T03:04:11;3.22;;;1.45;;
56269;SDS011;42176;43.240;27.880;2024-01-16T03:06:21;10.25;;;4.97;;
56269;SDS011;42176;43.240;27.880;2024-01-16T03:08:24;11.32;;;5.57;;
56269;SDS011;42176;43.240;27.880;2024-01-16T03:10:25;14.43;;;6.88;;
56269;SDS011;42176;43.240;27.880;2024-01-16T03:12:26;11.07;;;6.38;;
56269;SDS011;42176;43.240;27.880;2024-01-16T03:14:27;10.85;;;6.38;;
56269;SDS011;42176;43.240;27.880;2024-01-16T03:16:28;9.23;;;5.60;;
56269;SDS011;42176;43.240;27.880;2024-01-16T03:18:29;9.13;;;5.17;;
56269;SDS011;42176;43.240;27.880;2024-01-16T03:20:29;11.40;;;5.88;;
56269;SDS011;42176;43.240;27.880;2024-01-16T03:22:30;11.60;;;5.20;;
56269;SDS011;42176;43.240;27.880;2024-01-16T03:24:30;12.32;;;5.78;;
56269;SDS011;42176;43.240;27.880;2024-01-16T03:26:31;10.00;;;5.33;;
56269;SDS011;42176;43.240;27.880;2024-01-16T03:28:32;6.53;;;4.07;;
56269;SDS011;42176;43.240;27.880;2024-01-16T03:30:33;6.47;;;3.97;;
56269;SDS011;42176;43.240;27.880;2024-01-16T03:32:34;11.18;;;4.82;;
56269;SDS011;42176;43.240;27.880;2024-01-16T03:34:35;8.75;;;5.15;;
56269;SDS011;42176;43.240;27.880;2024-01-16T03:36:37;8.33;;;5.03;;
56269;SDS011;42176;43.240;27.880;2024-01-16T03:38:38;10.77;;;5.32;;
56269;SDS011;42176;43.240;27.880;2024-01-16T03:40:39;12.38;;;5.32;;
56269;SDS011;42176;43.240;27.880;2024-01-16T03:42:39;8.77;;;4.75;;
56269;SDS011;42176;43.240;27.880;2024-01-16T03:44:40;10.07;;;5.53;;
56269;SDS011;42176;43.240;27.880;2024-01-16T03:46:41;10.68;;;6.15;;
56269;SDS011;42176;43.240;27.880;2024-01-16T03:48:41;8.45;;;5.60;;
56269;SDS011;42176;43.240;27.880;2024-01-16T03:50:42;10.07;;;4.90;;
56269;SDS011;42176;43.240;27.880;2024-01-16T03:52:44;15.80;;;4.93;;
56269;SDS011;42176;43.240;27.880;2024-01-16T03:54:44;11.45;;;5.53;;
56269;SDS011;42176;43.240;27.880;2024-01-16T03:56:45;13.70;;;6.13;;
56269;SDS011;42176;43.240;27.880;2024-01-16T03:58:46;21.52;;;7.10;;
56269;SDS011;42176;43.240;27.880;2024-01-16T04:00:47;10.60;;;5.18;;
56269;SDS011;42176;43.240;27.880;2024-01-16T04:02:50;13.77;;;5.57;;
56269;SDS011;42176;43.240;27.880;2024-01-16T04:04:51;16.33;;;6.05;;
56269;SDS011;42176;43.240;27.880;2024-01-16T04:06:51;13.00;;;7.70;;
56269;SDS011;42176;43.240;27.880;2024-01-16T04:08:52;16.50;;;8.73;;
56269;SDS011;42176;43.240;27.880;2024-01-16T04:10:52;21.17;;;11.03;;
56269;SDS011;42176;43.240;27.880;2024-01-16T04:12:53;16.13;;;8.33;;
56269;SDS011;42176;43.240;27.880;2024-01-16T04:14:54;19.35;;;9.45;;
56269;SDS011;42176;43.240;27.880;2024-01-16T04:16:54;26.63;;;10.32;;
56269;SDS011;42176;43.240;27.880;2024-01-16T04:18:55;20.17;;;12.48;;
56269;SDS011;42176;43.240;27.880;2024-01-16T04:20:55;26.80;;;13.13;;
56269;SDS011;42176;43.240;27.880;2024-01-16T04:22:56;19.87;;;9.73;;
56269;SDS011;42176;43.240;27.880;2024-01-16T04:24:58;18.90;;;10.73;;
56269;SDS011;42176;43.240;27.880;2024-01-16T04:26:58;31.95;;;11.55;;
56269;SDS011;42176;43.240;27.880;2024-01-16T04:28:59;20.92;;;12.70;;
56269;SDS011;42176;43.240;27.880;2024-01-16T04:31:00;27.30;;;14.30;;
56269;SDS011;42176;43.240;27.880;2024-01-16T04:33:01;31.73;;;15.57;;
56269;SDS011;42176;43.240;27.880;2024-01-16T04:35:02;27.42;;;14.30;;
56269;SDS011;42176;43.240;27.880;2024-01-16T04:37:04;15.35;;;8.30;;
56269;SDS011;42176;43.240;27.880;2024-01-16T04:39:04;15.93;;;7.68;;
56269;SDS011;42176;43.240;27.880;2024-01-16T04:41:05;16.43;;;8.60;;
56269;SDS011;42176;43.240;27.880;2024-01-16T04:43:05;14.47;;;8.23;;
56269;SDS011;42176;43.240;27.880;2024-01-16T04:45:07;21.83;;;8.93;;
56269;SDS011;42176;43.240;27.880;2024-01-16T04:47:08;14.02;;;6.55;;
56269;SDS011;42176;43.240;27.880;2024-01-16T04:49:09;11.33;;;6.27;;
56269;SDS011;42176;43.240;27.880;2024-01-16T04:51:09;14.10;;;7.88;;
56269;SDS011;42176;43.240;27.880;2024-01-16T04:53:10;14.65;;;6.85;;
56269;SDS011;42176;43.240;27.880;2024-01-16T04:55:10;15.87;;;7.97;;
56269;SDS011;42176;43.240;27.880;2024-01-16T04:57:11;9.52;;;4.90;;
56269;SDS011;42176;43.240;27.880;2024-01-16T04:59:12;15.00;;;6.27;;
56269;SDS011;42176;43.240;27.880;2024-01-16T05:01:12;12.63;;;5.87;;
56269;SDS011;42176;43.240;27.880;2024-01-16T05:03:13;11.17;;;6.03;;
56269;SDS011;42176;43.240;27.880;2024-01-16T05:05:14;9.33;;;5.53;;
56269;SDS011;42176;43.240;27.880;2024-01-16T05:07:15;14.25;;;7.45;;
56269;SDS011;42176;43.240;27.880;2024-01-16T05:09:15;11.82;;;7.40;;
56269;SDS011;42176;43.240;27.880;2024-01-16T05:11:16;16.52;;;6.70;;
56269;SDS011;42176;43.240;27.880;2024-01-16T05:13:16;18.52;;;6.88;;
56269;SDS011;42176;43.240;27.880;2024-01-16T05:15:17;17.85;;;6.30;;
56269;SDS011;42176;43.240;27.880;2024-01-16T05:17:18;14.70;;;6.80;;
56269;SDS011;42176;43.240;27.880;2024-01-16T05:19:18;19.27;;;8.68;;
56269;SDS011;42176;43.240;27.880;2024-01-16T05:21:19;17.70;;;7.82;;
56269;SDS011;42176;43.240;27.880;2024-01-16T05:23:20;18.58;;;8.25;;
56269;SDS011;42176;43.240;27.880;2024-01-16T05:25:21;15.20;;;5.20;;
56269;SDS011;42176;43.240;27.880;2024-01-16T05:27:22;11.27;;;4.70;;
56269;SDS011;42176;43.240;27.880;2024-01-16T05:29:23;5.23;;;2.07;;
56269;SDS011;42176;43.240;27.880;2024-01-16T05:31:23;5.47;;;2.35;;
56269;SDS011;42176;43.240;27.880;2024-01-16T05:33:24;4.53;;;2.63;;
56269;SDS011;42176;43.240;27.880;2024-01-16T05:35:24;3.55;;;2.33;;
56269;SDS011;42176;43.240;27.880;2024-01-16T05:37:25;4.03;;;3.60;;
56269;SDS011;42176;43.240;27.880;2024-01-16T05:39:26;3.13;;;1.93;;
56269;SDS011;42176;43.240;27.880;2024-01-16T05:41:26;5.90;;;3.20;;
56269;SDS011;42176;43.240;27.880;2024-01-16T05:43:27;4.57;;;2.13;;
56269;SDS011;42176;43.240;27.880;2024-01-16T05:45:28;2.13;;;1.42;;
56269;SDS011;42176;43.240;27.880;2024-01-16T05:47:29;10.55;;;7.10;;
56269;SDS011;42176;43.240;27.880;2024-01-16T05:49:31;39.15;;;18.00;;
56269;SDS011;42176;43.240;27.880;2024-01-16T05:51:31;29.27;;;12.23;;
56269;SDS011;42176;43.240;27.880;2024-01-16T05:53:32;9.43;;;4.33;;
56269;SDS011;42176;43.240;27.880;2024-01-16T05:55:32;11.77;;;5.17;;
56269;SDS011;42176;43.240;27.880;2024-01-16T05:57:36;6.22;;;2.70;;
56269;SDS011;42176;43.240;27.880;2024-01-16T05:59:37;5.70;;;2.53;;
56269;SDS011;42176;43.240;27.880;2024-01-16T06:01:38;4.20;;;2.90;;
56269;SDS011;42176;43.240;27.880;2024-01-16T06:03:39;5.37;;;3.50;;
56269;SDS011;42176;43.240;27.880;2024-01-16T06:05:40;7.40;;;4.18;;
56269;SDS011;42176;43.240;27.880;2024-01-16T06:07:40;6.30;;;3.37;;
56269;SDS011;42176;43.240;27.880;2024-01-16T06:09:41;2.67;;;2.30;;
56269;SDS011;42176;43.240;27.880;2024-01-16T06:11:42;5.70;;;2.50;;
56269;SDS011;42176;43.240;27.880;2024-01-16T06:13:42;4.07;;;2.20;;
56269;SDS011;42176;43.240;27.880;2024-01-16T06:15:43;5.05;;;2.67;;
56269;SDS011;42176;43.240;27.880;2024-01-16T06:17:44;3.00;;;2.30;;
56269;SDS011;42176;43.240;27.880;2024-01-16T06:19:45;5.97;;;2.87;;
56269;SDS011;42176;43.240;27.880;2024-01-16T06:23:47;3.55;;;2.10;;
56269;SDS011;42176;43.240;27.880;2024-01-16T06:25:48;4.47;;;1.38;;
56269;SDS011;42176;43.240;27.880;2024-01-16T06:27:48;5.47;;;3.03;;
56269;SDS011;42176;43.240;27.880;2024-01-16T06:29:49;4.40;;;2.40;;
56269;SDS011;42176;43.240;27.880;2024-01-16T06:31:51;5.40;;;3.30;;
56269;SDS011;42176;43.240;27.880;2024-01-16T06:33:51;4.30;;;3.67;;
56269;SDS011;42176;43.240;27.880;2024-01-16T06:35:54;9.40;;;3.87;;
56269;SDS011;42176;43.240;27.880;2024-01-16T06:37:55;5.05;;;3.13;;
56269;SDS011;42176;43.240;27.880;2024-01-16T06:39:55;5.20;;;3.43;;
56269;SDS011;42176;43.240;27.880;2024-01-16T06:41:56;4.15;;;2.50;;
56269;SDS011;42176;43.240;27.880;2024-01-16T06:43:56;9.02;;;3.92;;
56269;SDS011;42176;43.240;27.880;2024-01-16T06:45:57;7.38;;;3.88;;
56269;SDS011;42176;43.240;27.880;2024-01-16T06:47:58;7.68;;;4.45;;
56269;SDS011;42176;43.240;27.880;2024-01-16T06:49:59;2.33;;;1.80;;
56269;SDS011;42176;43.240;27.880;2024-01-16T06:51:59;3.90;;;2.60;;
56269;SDS011;42176;43.240;27.880;2024-01-16T06:54:00;4.57;;;2.60;;
56269;SDS011;42176;43.240;27.880;2024-01-16T06:56:01;4.73;;;2.00;;
56269;SDS011;42176;43.240;27.880;2024-01-16T06:58:01;11.30;;;4.07;;
56269;SDS011;42176;43.240;27.880;2024-01-16T07:00:02;9.25;;;4.63;;
56269;SDS011;42176;43.240;27.880;2024-01-16T07:02:07;10.75;;;4.30;;
56269;SDS011;42176;43.240;27.880;2024-01-16T07:04:08;4.35;;;2.55;;
56269;SDS011;42176;43.240;27.880;2024-01-16T07:06:09;5.82;;;2.45;;
56269;SDS011;42176;43.240;27.880;2024-01-16T07:08:10;5.80;;;2.88;;
56269;SDS011;42176;43.240;27.880;2024-01-16T07:10:10;8.82;;;3.03;;
56269;SDS011;42176;43.240;27.880;2024-01-16T07:12:18;2.67;;;1.95;;
56269;SDS011;42176;43.240;27.880;2024-01-16T07:14:18;7.00;;;4.13;;
56269;SDS011;42176;43.240;27.880;2024-01-16T07:16:19;7.25;;;3.97;;
56269;SDS011;42176;43.240;27.880;2024-01-16T07:18:20;4.30;;;2.45;;
56269;SDS011;42176;43.240;27.880;2024-01-16T07:20:20;4.97;;;3.47;;
56269;SDS011;42176;43.240;27.880;2024-01-16T07:22:21;3.60;;;2.60;;
56269;SDS011;42176;43.240;27.880;2024-01-16T07:24:21;4.53;;;2.33;;
56269;SDS011;42176;43.240;27.880;2024-01-16T07:26:22;3.60;;;2.15;;
56269;SDS011;42176;43.240;27.880;2024-01-16T07:28:23;7.15;;;4.07;;
56269;SDS011;42176;43.240;27.880;2024-01-16T07:30:24;9.63;;;5.53;;
56269;SDS011;42176;43.240;27.880;2024-01-16T07:32:24;5.10;;;2.90;;
56269;SDS011;42176;43.240;27.880;2024-01-16T07:34:25;2.40;;;1.93;;
56269;SDS011;42176;43.240;27.880;2024-01-16T07:36:26;7.93;;;3.92;;
56269;SDS011;42176;43.240;27.880;2024-01-16T07:38:26;8.65;;;3.20;;
56269;SDS011;42176;43.240;27.880;2024-01-16T07:40:28;7.22;;;3.38;;
56269;SDS011;42176;43.240;27.880;2024-01-16T07:42:28;10.13;;;3.80;;
56269;SDS011;42176;43.240;27.880;2024-01-16T07:44:34;7.50;;;3.60;;
56269;SDS011;42176;43.240;27.880;2024-01-16T07:46:34;9.07;;;3.87;;
56269;SDS011;42176;43.240;27.880;2024-01-16T07:48:35;8.97;;;3.03;;
56269;SDS011;42176;43.240;27.880;2024-01-16T07:50:35;19.70;;;7.82;;
56269;SDS011;42176;43.240;27.880;2024-01-16T07:52:36;17.40;;;8.23;;
56269;SDS011;42176;43.240;27.880;2024-01-16T07:54:36;14.13;;;8.75;;
56269;SDS011;42176;43.240;27.880;2024-01-16T07:56:37;8.13;;;5.22;;
56269;SDS011;42176;43.240;27.880;2024-01-16T07:58:38;18.33;;;8.73;;
56269;SDS011;42176;43.240;27.880;2024-01-16T08:00:38;10.53;;;5.87;;
56269;SDS011;42176;43.240;27.880;2024-01-16T08:02:39;18.93;;;9.63;;
56269;SDS011;42176;43.240;27.880;2024-01-16T08:04:41;11.73;;;7.03;;
56269;SDS011;42176;43.240;27.880;2024-01-16T08:06:42;38.03;;;17.65;;
56269;SDS011;42176;43.240;27.880;2024-01-16T08:08:43;18.92;;;10.60;;
56269;SDS011;42176;43.240;27.880;2024-01-16T08:10:43;22.85;;;13.07;;
56269;SDS011;42176;43.240;27.880;2024-01-16T08:12:44;31.40;;;15.20;;
56269;SDS011;42176;43.240;27.880;2024-01-16T08:14:45;25.23;;;15.07;;
56269;SDS011;42176;43.240;27.880;2024-01-16T08:16:46;20.25;;;10.75;;
56269;SDS011;42176;43.240;27.880;2024-01-16T08:18:46;21.42;;;10.65;;
56269;SDS011;42176;43.240;27.880;2024-01-16T08:20:47;18.48;;;10.18;;
56269;SDS011;42176;43.240;27.880;2024-01-16T08:22:48;21.43;;;9.73;;
56269;SDS011;42176;43.240;27.880;2024-01-16T08:24:50;24.42;;;14.23;;
56269;SDS011;42176;43.240;27.880;2024-01-16T08:26:50;21.37;;;13.50;;
56269;SDS011;42176;43.240;27.880;2024-01-16T08:28:51;5.93;;;3.78;;
56269;SDS011;42176;43.240;27.880;2024-01-16T08:30:52;19.42;;;10.73;;
56269;SDS011;42176;43.240;27.880;2024-01-16T08:32:52;13.48;;;8.05;;
56269;SDS011;42176;43.240;27.880;2024-01-16T08:34:53;19.25;;;8.75;;
56269;SDS011;42176;43.240;27.880;2024-01-16T08:36:53;33.10;;;16.15;;
56269;SDS011;42176;43.240;27.880;2024-01-16T08:38:56;48.33;;;21.98;;
56269;SDS011;42176;43.240;27.880;2024-01-16T08:40:57;23.45;;;14.40;;
56269;SDS011;42176;43.240;27.880;2024-01-16T08:42:58;28.50;;;14.05;;
56269;SDS011;42176;43.240;27.880;2024-01-16T08:44:58;12.57;;;6.80;;
56269;SDS011;42176;43.240;27.880;2024-01-16T08:46:59;16.92;;;9.15;;
56269;SDS011;42176;43.240;27.880;2024-01-16T08:49:02;14.50;;;8.80;;
56269;SDS011;42176;43.240;27.880;2024-01-16T08:51:04;20.38;;;12.02;;
56269;SDS011;42176;43.240;27.880;2024-01-16T08:53:08;21.80;;;13.40;;
56269;SDS011;42176;43.240;27.880;2024-01-16T08:55:08;26.20;;;14.48;;
56269;SDS011;42176;43.240;27.880;2024-01-16T08:57:09;21.13;;;9.45;;
56269;SDS011;42176;43.240;27.880;2024-01-16T08:59:10;10.43;;;5.93;;
56269;SDS011;42176;43.240;27.880;2024-01-16T09:01:11;9.98;;;5.68;;
56269;SDS011;42176;43.240;27.880;2024-01-16T09:03:11;14.90;;;9.13;;
56269;SDS011;42176;43.240;27.880;2024-01-16T09:05:12;10.43;;;6.20;;
56269;SDS011;42176;43.240;27.880;2024-01-16T09:09:15;12.27;;;5.93;;
56269;SDS011;42176;43.240;27.880;2024-01-16T09:11:16;17.35;;;6.80;;
56269;SDS011;42176;43.240;27.880;2024-01-16T09:13:17;17.85;;;8.77;;
56269;SDS011;42176;43.240;27.880;2024-01-16T09:15:17;21.98;;;9.25;;
56269;SDS011;42176;43.240;27.880;2024-01-16T09:17:18;11.60;;;5.78;;
56269;SDS011;42176;43.240;27.880;2024-01-16T09:19:18;17.73;;;6.95;;
56269;SDS011;42176;43.240;27.880;2024-01-16T09:21:19;9.73;;;6.30;;
56269;SDS011;42176;43.240;27.880;2024-01-16T09:23:20;4.68;;;3.42;;
56269;SDS011;42176;43.240;27.880;2024-01-16T09:25:20;9.85;;;5.10;;
56269;SDS011;42176;43.240;27.880;2024-01-16T09:27:24;14.20;;;8.32;;
56269;SDS011;42176;43.240;27.880;2024-01-16T09:29:24;11.00;;;6.80;;
56269;SDS011;42176;43.240;27.880;2024-01-16T09:31:25;15.32;;;6.38;;
56269;SDS011;42176;43.240;27.880;2024-01-16T09:33:25;13.60;;;5.47;;
56269;SDS011;42176;43.240;27.880;2024-01-16T09:35:26;13.18;;;5.40;;
56269;SDS011;42176;43.240;27.880;2024-01-16T09:37:26;11.05;;;6.05;;
56269;SDS011;42176;43.240;27.880;2024-01-16T09:39:27;14.07;;;7.60;;
56269;SDS011;42176;43.240;27.880;2024-01-16T09:41:27;24.42;;;11.25;;
56269;SDS011;42176;43.240;27.880;2024-01-16T09:43:28;8.87;;;4.10;;
56269;SDS011;42176;43.240;27.880;2024-01-16T09:45:31;7.05;;;3.63;;
56269;SDS011;42176;43.240;27.880;2024-01-16T09:47:34;7.38;;;4.63;;
56269;SDS011;42176;43.240;27.880;2024-01-16T09:49:34;11.80;;;5.00;;
56269;SDS011;42176;43.240;27.880;2024-01-16T09:51:35;8.30;;;6.07;;
56269;SDS011;42176;43.240;27.880;2024-01-16T09:53:36;8.83;;;6.00;;
56269;SDS011;42176;43.240;27.880;2024-01-16T09:55:36;3.13;;;2.50;;
56269;SDS011;42176;43.240;27.880;2024-01-16T09:57:39;6.22;;;3.97;;
56269;SDS011;42176;43.240;27.880;2024-01-16T09:59:40;15.13;;;5.15;;
56269;SDS011;42176;43.240;27.880;2024-01-16T10:01:41;12.77;;;5.70;;
56269;SDS011;42176;43.240;27.880;2024-01-16T10:05:44;9.10;;;5.85;;
56269;SDS011;42176;43.240;27.880;2024-01-16T10:07:47;5.47;;;2.72;;
56269;SDS011;42176;43.240;27.880;2024-01-16T10:09:49;4.43;;;2.67;;
56269;SDS011;42176;43.240;27.880;2024-01-16T10:11:52;3.47;;;2.30;;
56269;SDS011;42176;43.240;27.880;2024-01-16T10:13:52;7.33;;;4.27;;
56269;SDS011;42176;43.240;27.880;2024-01-16T10:15:53;12.10;;;4.83;;
56269;SDS011;42176;43.240;27.880;2024-01-16T10:17:55;9.38;;;3.42;;
56269;SDS011;42176;43.240;27.880;2024-01-16T10:19:56;3.10;;;2.37;;
56269;SDS011;42176;43.240;27.880;2024-01-16T10:22:02;2.92;;;2.13;;
56269;SDS011;42176;43.240;27.880;2024-01-16T10:24:12;7.32;;;2.97;;
56269;SDS011;42176;43.240;27.880;2024-01-16T10:26:16;4.00;;;2.50;;
56269;SDS011;42176;43.240;27.880;2024-01-16T10:28:19;6.07;;;3.50;;
56269;SDS011;42176;43.240;27.880;2024-01-16T10:30:21;5.07;;;3.22;;
56269;SDS011;42176;43.240;27.880;2024-01-16T10:32:36;3.67;;;1.90;;
56269;SDS011;42176;43.240;27.880;2024-01-16T10:34:39;7.38;;;1.98;;
56269;SDS011;42176;43.240;27.880;2024-01-16T10:36:40;5.60;;;2.05;;
56269;SDS011;42176;43.240;27.880;2024-01-16T10:38:41;3.83;;;1.92;;
56269;SDS011;42176;43.240;27.880;2024-01-16T10:40:43;3.35;;;2.00;;
56269;SDS011;42176;43.240;27.880;2024-01-16T10:42:44;5.77;;;2.70;;
56269;SDS011;42176;43.240;27.880;2024-01-16T10:44:52;8.77;;;3.28;;
56269;SDS011;42176;43.240;27.880;2024-01-16T10:47:10;4.75;;;2.47;;
56269;SDS011;42176;43.240;27.880;2024-01-16T10:49:13;3.63;;;1.33;;
56269;SDS011;42176;43.240;27.880;2024-01-16T10:51:14;5.53;;;2.00;;
56269;SDS011;42176;43.240;27.880;2024-01-16T10:53:15;3.23;;;1.73;;
56269;SDS011;42176;43.240;27.880;2024-01-16T10:55:20;6.55;;;2.33;;
56269;SDS011;42176;43.240;27.880;2024-01-16T10:57:23;8.68;;;2.90;;
56269;SDS011;42176;43.240;27.880;2024-01-16T10:59:25;5.95;;;2.33;;
56269;SDS011;42176;43.240;27.880;2024-01-16T11:01:33;2.25;;;1.65;;
56269;SDS011;42176;43.240;27.880;2024-01-16T11:03:35;1.00;;;0.70;;
56269;SDS011;42176;43.240;27.880;2024-01-16T11:05:40;2.40;;;2.17;;
56269;SDS011;42176;43.240;27.880;2024-01-16T11:07:41;2.65;;;1.75;;
56269;SDS011;42176;43.240;27.880;2024-01-16T11:09:43;1.10;;;1.00;;
56269;SDS011;42176;43.240;27.880;2024-01-16T11:11:45;2.00;;;1.40;;
56269;SDS011;42176;43.240;27.880;2024-01-16T11:13:46;1.23;;;1.00;;
56269;SDS011;42176;43.240;27.880;2024-01-16T11:15:47;2.17;;;1.63;;
56269;SDS011;42176;43.240;27.880;2024-01-16T11:17:49;1.83;;;1.52;;
56269;SDS011;42176;43.240;27.880;2024-01-16T11:19:50;1.13;;;1.03;;
56269;SDS011;42176;43.240;27.880;2024-01-16T11:21:51;1.98;;;1.30;;
56269;SDS011;42176;43.240;27.880;2024-01-16T11:23:52;4.90;;;1.33;;
56269;SDS011;42176;43.240;27.880;2024-01-16T11:25:53;2.83;;;1.40;;
56269;SDS011;42176;43.240;27.880;2024-01-16T11:27:54;3.20;;;1.13;;
56269;SDS011;42176;43.240;27.880;2024-01-16T11:30:13;1.20;;;1.08;;
56269;SDS011;42176;43.240;27.880;2024-01-16T11:32:35;1.30;;;1.20;;
56269;SDS011;42176;43.240;27.880;2024-01-16T11:36:51;3.13;;;0.95;;
56269;SDS011;42176;43.240;27.880;2024-01-16T11:38:55;2.65;;;0.70;;
56269;SDS011;42176;43.240;27.880;2024-01-16T11:40:57;1.48;;;0.65;;
56269;SDS011;42176;43.240;27.880;2024-01-16T11:42:58;0.93;;;0.83;;
56269;SDS011;42176;43.240;27.880;2024-01-16T11:44:59;1.97;;;1.07;;
56269;SDS011;42176;43.240;27.880;2024-01-16T11:46:59;3.87;;;1.33;;
56269;SDS011;42176;43.240;27.880;2024-01-16T11:49:02;1.15;;;1.00;;
56269;SDS011;42176;43.240;27.880;2024-01-16T11:51:22;1.75;;;0.90;;
56269;SDS011;42176;43.240;27.880;2024-01-16T11:57:44;3.47;;;1.45;;
56269;SDS011;42176;43.240;27.880;2024-01-16T12:00:03;1.38;;;1.00;;
56269;SDS011;42176;43.240;27.880;2024-01-16T12:02:18;1.40;;;0.93;;
56269;SDS011;42176;43.240;27.880;2024-01-16T12:04:21;0.73;;;0.70;;
56269;SDS011;42176;43.240;27.880;2024-01-16T12:06:22;1.40;;;1.20;;
56269;SDS011;42176;43.240;27.880;2024-01-16T12:08:23;2.00;;;1.23;;
56269;SDS011;42176;43.240;27.880;2024-01-16T12:10:25;6.30;;;0.85;;